Time;durP1;ratioP1;P1;durP2;ratioP2;P2;SDS_P1;SDS_P2;PMS_P1;PMS_P2;Temp;Humidity;BMP_temperature;BMP_pressure;BME280_temperature;BME280_humidity;BME280_pressure;Samples;Min_cycle;Max_cycle;Signal;HPM_P1;HPM_P2
2022/11/08 00:01:37;;;;;;;43.07;24.43;;;5.50;99.90;;;;;;5092076;28;20195;-69
2022/11/08 00:04:07;;;;;;;48.53;27.00;;;5.50;99.90;;;;;;5073364;28;20229;-68
2022/11/08 00:14:49;;;;;;;43.33;25.50;;;5.60;99.90;;;;;;5093532;28;20269;-67
2022/11/08 00:17:18;;;;;;;48.70;27.63;;;5.50;99.90;;;;;;5093929;28;20200;-68
2022/11/08 00:19:45;;;;;;;47.57;27.30;;;5.40;99.90;;;;;;5093935;28;20204;-69
2022/11/08 00:22:14;;;;;;;47.70;26.53;;;5.40;99.90;;;;;;5094311;28;20661;-68
2022/11/08 00:24:41;;;;;;;45.07;26.00;;;5.30;99.90;;;;;;5094065;28;20204;-67
2022/11/08 00:27:11;;;;;;;45.80;25.80;;;5.40;99.90;;;;;;5093578;28;20603;-67
2022/11/08 00:29:38;;;;;;;49.13;26.13;;;5.30;99.90;;;;;;5094191;28;20741;-68
2022/11/08 00:32:07;;;;;;;51.10;27.43;;;5.30;99.90;;;;;;5093701;28;20312;-67
2022/11/08 00:34:34;;;;;;;46.37;26.83;;;5.40;99.90;;;;;;5093554;28;20200;-69
2022/11/08 00:37:01;;;;;;;46.60;26.33;;;5.40;99.90;;;;;;5093203;28;20219;-68
2022/11/08 00:39:30;;;;;;;44.00;25.03;;;5.40;99.90;;;;;;5093952;28;20560;-66
2022/11/08 00:41:56;;;;;;;42.30;24.33;;;5.40;99.90;;;;;;5087394;28;20208;-68
2022/11/08 00:44:23;;;;;;;41.03;23.43;;;5.40;99.90;;;;;;5086599;28;20204;-67
2022/11/08 00:46:50;;;;;;;42.30;25.10;;;5.40;99.90;;;;;;5093387;28;20208;-66
2022/11/08 00:49:18;;;;;;;41.90;25.13;;;5.40;99.90;;;;;;5091732;28;20210;-67
2022/11/08 00:51:45;;;;;;;42.87;24.83;;;5.40;99.90;;;;;;5093339;28;20231;-67
2022/11/08 00:54:14;;;;;;;42.00;23.37;;;5.40;99.90;;;;;;5093406;28;20628;-68
2022/11/08 00:56:42;;;;;;;46.67;24.23;;;5.40;99.90;;;;;;5093239;28;20222;-67
2022/11/08 00:59:11;;;;;;;43.23;25.27;;;5.40;99.90;;;;;;5093438;28;20295;-68
2022/11/08 01:01:39;;;;;;;44.50;24.37;;;5.40;99.90;;;;;;5093359;28;20196;-69
2022/11/08 01:04:06;;;;;;;40.57;23.30;;;5.40;99.90;;;;;;5090863;28;20234;-68
2022/11/08 01:06:33;;;;;;;43.23;24.37;;;5.30;99.90;;;;;;5093242;28;20203;-68
2022/11/08 01:09:00;;;;;;;41.63;25.07;;;5.40;99.90;;;;;;5093120;28;20241;-66
2022/11/08 01:11:27;;;;;;;47.10;24.23;;;5.40;99.90;;;;;;5093187;28;20582;-68
2022/11/08 01:13:58;;;;;;;38.57;23.23;;;5.40;99.90;;;;;;5092449;28;20220;-68
2022/11/08 01:16:27;;;;;;;40.20;23.20;;;5.50;99.90;;;;;;5093456;28;20634;-70
2022/11/08 01:18:56;;;;;;;42.73;23.17;;;5.50;99.90;;;;;;5090680;28;20675;-69
2022/11/08 01:21:23;;;;;;;38.47;22.27;;;5.50;99.90;;;;;;5093186;28;20787;-69
2022/11/08 01:23:51;;;;;;;38.53;22.43;;;5.50;99.90;;;;;;5093024;28;20208;-71
2022/11/08 01:26:20;;;;;;;42.17;24.63;;;5.50;99.90;;;;;;5092974;28;20204;-68
2022/11/08 01:28:47;;;;;;;43.17;23.90;;;5.50;99.90;;;;;;5092643;28;20211;-69
2022/11/08 01:31:17;;;;;;;39.83;22.20;;;5.50;99.90;;;;;;5092519;28;20223;-70
2022/11/08 01:33:44;;;;;;;39.37;23.80;;;5.50;99.90;;;;;;5091379;28;20214;-71
2022/11/08 01:36:13;;;;;;;40.40;23.47;;;5.50;99.90;;;;;;5093144;28;20204;-69
2022/11/08 01:38:40;;;;;;;40.67;24.13;;;5.50;99.90;;;;;;5092811;28;20210;-70
2022/11/08 01:41:08;;;;;;;40.93;23.30;;;5.50;99.90;;;;;;5092823;28;20207;-70
2022/11/08 01:43:42;;;;;;;40.37;23.90;;;5.50;99.90;;;;;;5092756;28;20203;-71
2022/11/08 01:46:35;;;;;;;42.03;23.17;;;5.50;99.90;;;;;;5092823;28;20212;-71
2022/11/08 01:49:29;;;;;;;42.27;24.07;;;5.40;99.90;;;;;;5090644;28;20565;-70
2022/11/08 01:52:04;;;;;;;43.33;23.57;;;5.40;99.90;;;;;;5092566;28;20209;-70
2022/11/08 01:54:36;;;;;;;37.03;22.90;;;5.40;99.90;;;;;;5088381;28;20233;-71
2022/11/08 01:57:06;;;;;;;38.23;23.33;;;5.30;99.90;;;;;;5092910;28;20279;-70
2022/11/08 01:59:35;;;;;;;39.77;21.83;;;5.40;99.90;;;;;;5092359;28;20270;-69
2022/11/08 02:02:04;;;;;;;38.63;23.07;;;5.30;99.90;;;;;;5091301;28;21384;-69
2022/11/08 02:04:31;;;;;;;39.43;23.00;;;5.30;99.90;;;;;;5091944;28;20192;-70
2022/11/08 02:06:58;;;;;;;42.73;23.57;;;5.30;99.90;;;;;;5092491;28;20210;-70
2022/11/08 02:09:25;;;;;;;43.53;23.70;;;5.30;99.90;;;;;;5092532;28;20206;-69
2022/11/08 02:11:53;;;;;;;42.90;23.80;;;5.30;99.90;;;;;;5090223;28;20251;-68
2022/11/08 02:14:20;;;;;;;40.43;23.80;;;5.40;99.90;;;;;;5091861;28;20263;-69
2022/11/08 02:16:47;;;;;;;38.00;23.20;;;5.40;99.90;;;;;;5092055;28;20200;-69
2022/11/08 02:19:22;;;;;;;41.43;23.67;;;5.40;99.90;;;;;;5091238;28;20654;-69
2022/11/08 02:21:55;;;;;;;38.63;22.43;;;5.40;99.90;;;;;;5092379;28;20655;-69
2022/11/08 02:24:23;;;;;;;41.70;23.87;;;5.40;99.90;;;;;;5092473;28;20203;-69
2022/11/08 02:26:52;;;;;;;37.47;22.73;;;5.40;99.90;;;;;;5092558;28;20595;-68
2022/11/08 02:29:24;;;;;;;38.30;23.23;;;5.40;99.90;;;;;;5092391;28;20551;-69
2022/11/08 02:31:51;;;;;;;39.80;22.13;;;5.50;99.90;;;;;;5091967;28;20227;-68
2022/11/08 02:34:19;;;;;;;39.40;22.77;;;5.40;99.90;;;;;;5091790;28;20214;-68
2022/11/08 02:36:48;;;;;;;44.70;24.30;;;5.40;99.90;;;;;;5092312;28;20553;-68
2022/11/08 02:39:15;;;;;;;38.47;22.40;;;5.50;99.90;;;;;;5092120;28;20257;-68
2022/11/08 02:41:43;;;;;;;38.90;22.97;;;5.40;99.90;;;;;;5093931;28;20680;-68
2022/11/08 02:44:10;;;;;;;42.83;23.03;;;5.50;99.90;;;;;;5096538;28;20221;-69
2022/11/08 02:46:37;;;;;;;37.90;21.50;;;5.40;99.90;;;;;;5096177;28;20204;-68
2022/11/08 02:49:04;;;;;;;42.57;23.17;;;5.40;99.90;;;;;;5094735;28;20204;-67
2022/11/08 02:51:31;;;;;;;41.43;23.47;;;5.40;99.90;;;;;;5096000;28;20216;-68
2022/11/08 02:53:57;;;;;;;40.37;23.00;;;5.30;99.90;;;;;;5096072;28;20203;-68
2022/11/08 02:56:24;;;;;;;40.47;23.27;;;5.30;99.90;;;;;;5095832;28;20204;-67
2022/11/08 02:58:52;;;;;;;42.10;24.03;;;5.30;99.90;;;;;;5096213;28;20244;-67
2022/11/08 03:01:19;;;;;;;43.40;24.60;;;5.30;99.90;;;;;;5096265;28;20603;-68
2022/11/08 03:03:46;;;;;;;42.73;23.33;;;5.30;99.90;;;;;;5094483;28;20240;-68
2022/11/08 03:06:13;;;;;;;36.63;22.03;;;5.30;99.90;;;;;;5095465;28;20629;-67
2022/11/08 03:08:40;;;;;;;37.20;21.93;;;5.30;99.90;;;;;;5095979;28;20214;-68
2022/11/08 03:11:06;;;;;;;40.60;23.07;;;5.40;99.90;;;;;;5095918;28;20629;-67
2022/11/08 03:13:33;;;;;;;36.27;21.93;;;5.40;99.90;;;;;;5095562;28;20228;-69
2022/11/08 03:16:03;;;;;;;38.00;21.77;;;5.40;99.90;;;;;;5095944;28;20612;-68
2022/11/08 03:18:31;;;;;;;38.00;22.03;;;5.40;99.90;;;;;;5095506;28;20192;-67
2022/11/08 03:21:00;;;;;;;36.17;22.13;;;5.40;99.90;;;;;;5094494;28;20246;-68
2022/11/08 03:23:27;;;;;;;36.07;22.10;;;5.50;99.90;;;;;;5095195;28;20204;-66
2022/11/08 03:25:54;;;;;;;38.27;22.37;;;5.60;99.90;;;;;;5095578;28;20218;-69
2022/11/08 03:28:21;;;;;;;38.20;22.43;;;5.60;99.90;;;;;;5094960;28;20235;-67
2022/11/08 03:30:50;;;;;;;39.70;22.73;;;5.60;99.90;;;;;;5095021;28;20699;-68
2022/11/08 03:33:19;;;;;;;36.63;23.30;;;5.60;99.90;;;;;;5094732;28;20227;-69
2022/11/08 03:35:47;;;;;;;39.57;22.50;;;5.60;99.90;;;;;;5093364;28;20211;-68
2022/11/08 03:38:14;;;;;;;40.60;22.87;;;5.70;99.90;;;;;;5094909;28;20681;-67
2022/11/08 03:40:41;;;;;;;38.23;22.33;;;5.70;99.90;;;;;;5094545;28;20204;-69
2022/11/08 03:43:08;;;;;;;37.77;23.07;;;5.70;99.90;;;;;;5093684;28;20192;-68
2022/11/08 03:45:35;;;;;;;37.67;21.60;;;5.70;99.90;;;;;;5094741;28;20204;-68
2022/11/08 03:48:02;;;;;;;37.97;22.67;;;5.70;99.90;;;;;;5094848;28;20660;-67
2022/11/08 03:50:30;;;;;;;36.63;21.50;;;5.80;99.90;;;;;;5094301;28;20203;-67
2022/11/08 03:52:57;;;;;;;38.07;22.50;;;5.80;99.90;;;;;;5094353;28;20689;-68
2022/11/08 03:55:26;;;;;;;38.70;22.67;;;5.80;99.90;;;;;;5094776;28;20242;-68
2022/11/08 03:57:53;;;;;;;40.37;24.67;;;5.90;99.90;;;;;;5093857;28;20675;-67
2022/11/08 04:00:22;;;;;;;37.27;22.97;;;5.90;99.90;;;;;;5094483;28;20302;-68
2022/11/08 04:02:49;;;;;;;35.53;22.17;;;5.90;99.90;;;;;;5094489;28;20304;-67
2022/11/08 04:05:16;;;;;;;40.13;23.37;;;5.90;99.90;;;;;;5094226;28;20204;-69
2022/11/08 04:07:45;;;;;;;41.60;23.97;;;5.90;99.90;;;;;;5094311;28;20294;-67
2022/11/08 04:10:12;;;;;;;38.50;22.70;;;5.90;99.90;;;;;;5093183;28;20200;-67
2022/11/08 04:15:23;;;;;;;37.73;21.97;;;5.90;99.90;;;;;;5094074;28;20267;-67
2022/11/08 06:46:56;;;;;;;40.90;23.27;;;4.90;99.90;;;;;;5040818;28;20571;-68
2022/11/08 06:49:23;;;;;;;37.60;21.50;;;6.10;99.90;;;;;;5029202;28;20827;-68
2022/11/08 06:51:50;;;;;;;39.60;23.33;;;6.20;99.90;;;;;;5028796;28;20213;-67
2022/11/08 06:54:17;;;;;;;36.33;22.33;;;6.30;99.90;;;;;;5028924;28;20213;-67
2022/11/08 06:56:45;;;;;;;40.17;22.40;;;6.30;99.90;;;;;;5028034;28;20583;-69
2022/11/08 06:59:12;;;;;;;34.63;20.47;;;6.40;99.90;;;;;;5028627;28;20229;-68
2022/11/08 07:01:39;;;;;;;35.37;21.10;;;6.40;99.90;;;;;;5028784;28;20205;-67
2022/11/08 07:04:07;;;;;;;35.83;21.37;;;6.40;99.90;;;;;;5037840;28;20205;-68
2022/11/08 07:06:34;;;;;;;34.57;20.60;;;6.40;99.90;;;;;;5028647;28;20544;-67
2022/11/08 07:09:01;;;;;;;35.20;20.53;;;6.50;99.90;;;;;;5026066;28;20289;-68
2022/11/08 07:11:27;;;;;;;30.00;18.93;;;6.50;99.90;;;;;;5028331;28;20206;-67
2022/11/08 07:13:54;;;;;;;30.57;18.47;;;6.50;99.90;;;;;;5028087;28;20206;-69
2022/11/08 07:16:21;;;;;;;31.87;18.50;;;6.50;99.90;;;;;;5027297;28;20212;-67
2022/11/08 07:18:49;;;;;;;27.90;18.23;;;6.60;99.90;;;;;;5027817;28;20199;-72
2022/11/08 07:21:17;;;;;;;30.23;18.07;;;6.60;99.90;;;;;;5025037;28;20663;-69
2022/11/08 07:23:44;;;;;;;32.83;19.77;;;6.60;99.90;;;;;;5025999;28;20213;-69
2022/11/08 07:26:12;;;;;;;32.10;18.57;;;6.60;99.90;;;;;;5026861;28;20207;-68
2022/11/08 07:28:39;;;;;;;31.33;19.33;;;6.60;99.90;;;;;;5027990;28;20298;-69
2022/11/08 07:31:06;;;;;;;30.13;18.33;;;6.70;99.90;;;;;;5028518;28;20206;-68
2022/11/08 07:33:34;;;;;;;29.57;18.53;;;6.70;99.90;;;;;;5026872;28;20202;-68
2022/11/08 07:36:01;;;;;;;31.93;18.97;;;6.70;99.90;;;;;;5028329;28;20572;-69
2022/11/08 07:38:29;;;;;;;30.20;19.07;;;6.70;99.90;;;;;;5028209;28;20207;-69
2022/11/08 07:40:57;;;;;;;30.20;18.80;;;6.80;99.90;;;;;;5021211;28;20231;-69
2022/11/08 07:43:25;;;;;;;32.73;18.20;;;6.80;99.90;;;;;;5014074;28;20206;-69
2022/11/08 07:45:55;;;;;;;31.33;19.07;;;6.80;99.90;;;;;;5014240;28;20237;-68
2022/11/08 07:48:22;;;;;;;29.07;18.67;;;6.90;99.90;;;;;;5014744;28;20695;-69
2022/11/08 07:50:49;;;;;;;30.97;19.07;;;6.90;99.90;;;;;;5014569;28;20661;-68
2022/11/08 07:53:16;;;;;;;32.37;18.93;;;6.90;99.90;;;;;;5013789;28;20209;-69
2022/11/08 07:55:46;;;;;;;31.67;19.53;;;6.90;99.90;;;;;;5014646;28;20213;-68
2022/11/08 07:58:14;;;;;;;31.87;18.93;;;7.00;99.90;;;;;;5014264;28;20187;-69
2022/11/08 08:00:42;;;;;;;34.07;19.20;;;7.00;99.90;;;;;;5014147;28;20593;-67
2022/11/08 08:03:11;;;;;;;34.77;19.80;;;7.00;99.90;;;;;;5013636;28;20206;-67
2022/11/08 08:05:40;;;;;;;32.57;18.93;;;7.00;99.90;;;;;;5012201;28;20335;-71
2022/11/08 08:08:08;;;;;;;33.73;19.23;;;7.00;99.90;;;;;;5014422;28;20229;-69
2022/11/08 08:10:35;;;;;;;35.73;19.93;;;7.00;99.90;;;;;;5013493;28;20210;-71
2022/11/08 08:13:05;;;;;;;37.40;20.40;;;7.10;99.90;;;;;;5013279;28;20203;-71
2022/11/08 08:15:32;;;;;;;42.97;22.33;;;7.10;99.90;;;;;;5014211;28;20246;-69
2022/11/08 08:18:01;;;;;;;38.50;20.97;;;7.10;99.90;;;;;;5014226;28;20573;-70
2022/11/08 08:20:28;;;;;;;40.37;21.60;;;7.10;99.90;;;;;;5014294;28;20230;-69
2022/11/08 08:22:55;;;;;;;39.97;21.63;;;7.10;99.90;;;;;;5013501;28;20218;-69
2022/11/08 08:25:21;;;;;;;39.00;20.50;;;7.10;99.90;;;;;;5014123;28;20774;-67
2022/11/08 08:27:49;;;;;;;48.00;21.97;;;7.10;99.90;;;;;;5013286;28;20203;-68
2022/11/08 08:30:18;;;;;;;45.37;21.73;;;7.20;99.90;;;;;;5014446;28;20213;-69
2022/11/08 08:32:45;;;;;;;44.93;21.93;;;7.20;99.90;;;;;;5018750;28;20223;-70
2022/11/08 08:35:12;;;;;;;42.20;21.77;;;7.20;99.90;;;;;;5014764;28;20231;-70
2022/11/08 08:37:39;;;;;;;47.13;21.10;;;7.20;99.90;;;;;;5014261;28;20206;-72
2022/11/08 08:40:07;;;;;;;43.37;20.93;;;7.20;99.90;;;;;;5014258;28;20226;-71
2022/11/08 08:42:34;;;;;;;47.20;22.67;;;7.20;99.90;;;;;;5013764;28;20209;-68
2022/11/08 08:45:02;;;;;;;47.83;22.97;;;7.30;99.90;;;;;;5013943;28;20234;-69
2022/11/08 08:47:30;;;;;;;51.37;22.57;;;7.20;99.90;;;;;;5013631;28;20570;-68
2022/11/08 08:49:57;;;;;;;49.77;23.20;;;7.20;99.90;;;;;;5014358;28;20203;-70
2022/11/08 08:52:23;;;;;;;49.70;22.63;;;7.30;99.90;;;;;;5012606;28;20219;-67
2022/11/08 08:54:50;;;;;;;50.83;24.53;;;7.40;99.90;;;;;;5014349;28;20217;-67
2022/11/08 08:57:17;;;;;;;50.90;23.17;;;7.40;99.90;;;;;;5014255;28;20224;-69
2022/11/08 08:59:44;;;;;;;54.13;23.37;;;7.50;99.90;;;;;;5014618;28;20589;-68
2022/11/08 09:02:11;;;;;;;57.87;24.97;;;7.50;99.90;;;;;;5011882;28;20320;-68
2022/11/08 09:04:40;;;;;;;64.60;25.93;;;7.50;99.90;;;;;;5013803;28;20222;-67
2022/11/08 09:07:06;;;;;;;53.53;24.83;;;7.60;99.90;;;;;;5014941;28;20655;-67
2022/11/08 09:09:35;;;;;;;64.93;26.03;;;7.60;99.90;;;;;;5023000;28;20191;-68
2022/11/08 09:12:03;;;;;;;57.93;24.77;;;7.60;99.90;;;;;;5016893;28;20222;-70
2022/11/08 09:14:29;;;;;;;59.53;26.37;;;7.70;99.90;;;;;;5012565;28;20560;-70
2022/11/08 09:16:56;;;;;;;52.80;23.73;;;7.70;99.90;;;;;;5013401;28;20206;-72
2022/11/08 09:19:23;;;;;;;56.77;24.60;;;7.80;99.90;;;;;;5013427;28;20211;-70
2022/11/08 09:21:52;;;;;;;61.43;26.63;;;7.80;99.90;;;;;;5013188;28;20206;-70
2022/11/08 09:24:19;;;;;;;56.53;25.60;;;7.80;99.90;;;;;;5012337;28;20206;-69
2022/11/08 09:26:45;;;;;;;55.03;24.73;;;7.90;99.90;;;;;;5013124;28;20571;-70
2022/11/08 09:29:12;;;;;;;63.17;27.27;;;7.90;99.90;;;;;;5001016;28;20210;-71
2022/11/08 09:31:39;;;;;;;56.00;24.60;;;8.00;99.90;;;;;;4994539;28;20211;-69
2022/11/08 09:34:06;;;;;;;52.07;24.37;;;8.00;99.90;;;;;;4993749;28;20214;-71
2022/11/08 09:36:33;;;;;;;55.63;26.13;;;8.00;99.90;;;;;;4993439;28;20203;-72
2022/11/08 09:39:01;;;;;;;56.77;25.10;;;8.10;99.90;;;;;;5003198;28;20301;-72
2022/11/08 09:41:43;;;;;;;60.03;25.60;;;8.10;99.90;;;;;;5012760;28;20588;-70
2022/11/08 09:44:25;;;;;;;54.90;24.87;;;8.20;99.90;;;;;;5012489;28;20195;-70
2022/11/08 09:46:55;;;;;;;59.90;25.77;;;8.30;99.90;;;;;;5012580;28;20734;-70
2022/11/08 09:49:26;;;;;;;54.00;24.53;;;8.30;99.90;;;;;;5012119;28;20239;-72
2022/11/08 09:51:53;;;;;;;62.43;27.20;;;8.40;99.90;;;;;;5012885;28;20210;-70
2022/11/08 09:54:26;;;;;;;60.70;26.50;;;8.50;99.90;;;;;;5012710;28;20203;-69
2022/11/08 09:56:54;;;;;;;59.20;26.17;;;8.50;99.90;;;;;;5011779;28;20209;-70
2022/11/08 09:59:32;;;;;;;49.47;25.27;;;8.60;99.90;;;;;;5009270;28;20202;-70
2022/11/08 10:01:59;;;;;;;57.77;25.93;;;8.70;99.90;;;;;;5012833;28;20217;-70
2022/11/08 10:04:29;;;;;;;49.83;24.53;;;8.80;99.90;;;;;;5011900;28;20207;-71
2022/11/08 10:07:11;;;;;;;57.70;25.00;;;8.80;99.90;;;;;;5012663;28;20301;-70
2022/11/08 10:10:07;;;;;;;56.13;25.83;;;8.90;99.90;;;;;;5011033;28;20581;-69
2022/11/08 10:12:42;;;;;;;49.80;25.50;;;8.90;99.90;;;;;;5012455;28;20554;-71
2022/11/08 10:15:20;;;;;;;44.50;24.83;;;9.00;99.90;;;;;;5011535;28;20213;-70
2022/11/08 10:18:06;;;;;;;56.33;25.30;;;9.00;99.90;;;;;;4992946;28;20218;-73
2022/11/08 10:20:46;;;;;;;51.60;24.07;;;9.10;99.90;;;;;;5014532;28;20680;-70
2022/11/08 10:23:21;;;;;;;53.33;24.57;;;9.10;99.90;;;;;;5012414;28;20287;-70
2022/11/08 10:25:55;;;;;;;49.40;25.17;;;9.20;99.90;;;;;;5013544;28;20201;-70
2022/11/08 10:28:28;;;;;;;57.43;24.70;;;9.20;99.90;;;;;;5012378;28;20193;-67
2022/11/08 10:30:55;;;;;;;52.33;25.50;;;9.30;99.90;;;;;;5012432;28;20665;-70
2022/11/08 10:33:29;;;;;;;52.20;24.50;;;9.40;99.90;;;;;;5011951;28;20553;-70
2022/11/08 10:35:59;;;;;;;54.43;25.03;;;9.50;99.90;;;;;;5012291;28;20198;-69
2022/11/08 14:42:44;;;;;;;66.27;38.30;;;9.00;99.90;;;;;;5109241;27;20545;-69
2022/11/08 14:45:14;;;;;;;70.90;40.60;;;9.70;99.90;;;;;;5109492;28;20187;-68
2022/11/08 14:47:41;;;;;;;72.20;42.20;;;9.80;99.90;;;;;;5096894;28;20705;-69
2022/11/08 14:50:16;;;;;;;64.63;38.80;;;9.80;99.90;;;;;;5088987;28;20200;-69
2022/11/08 14:52:43;;;;;;;66.93;41.60;;;9.90;99.90;;;;;;5082612;28;20254;-69
2022/11/08 14:55:11;;;;;;;84.10;44.47;;;9.90;99.90;;;;;;5068147;28;20209;-69
2022/11/08 14:57:40;;;;;;;74.77;43.90;;;10.00;99.90;;;;;;5067917;28;20207;-68
2022/11/08 15:00:17;;;;;;;78.00;41.00;;;10.00;99.90;;;;;;5068830;28;20238;-69
2022/11/08 15:02:47;;;;;;;81.97;42.00;;;10.00;99.90;;;;;;5066495;28;20224;-69
2022/11/08 15:05:39;;;;;;;71.73;40.03;;;10.00;99.90;;;;;;5067788;28;20211;-70
2022/11/08 15:08:17;;;;;;;70.00;40.10;;;10.00;99.90;;;;;;5067629;28;20698;-68
2022/11/08 15:10:53;;;;;;;64.63;37.73;;;10.00;99.90;;;;;;5068675;28;20185;-68
2022/11/08 15:13:21;;;;;;;67.30;38.00;;;10.00;99.90;;;;;;5068350;28;20199;-68
2022/11/08 15:15:53;;;;;;;70.90;38.40;;;10.00;99.90;;;;;;5068195;28;20201;-70
2022/11/08 15:18:26;;;;;;;66.53;35.97;;;10.10;99.90;;;;;;5068854;28;20631;-68
2022/11/08 15:20:57;;;;;;;61.13;35.90;;;10.10;99.90;;;;;;5068912;28;20570;-68
2022/11/08 15:23:42;;;;;;;64.90;35.47;;;10.10;99.90;;;;;;5068380;28;20546;-70
2022/11/08 15:26:31;;;;;;;63.30;36.50;;;10.10;99.90;;;;;;5068455;28;20185;-67
2022/11/08 15:29:07;;;;;;;69.17;36.43;;;10.10;99.90;;;;;;5066908;28;20220;-68
2022/11/08 15:31:39;;;;;;;67.23;34.53;;;10.10;99.90;;;;;;5068207;28;20180;-68
2022/11/08 15:34:06;;;;;;;59.63;32.53;;;10.10;99.90;;;;;;5068241;28;20288;-68
2022/11/08 15:36:35;;;;;;;64.73;35.73;;;10.10;99.90;;;;;;5067865;28;20201;-67
2022/11/08 15:39:03;;;;;;;70.30;37.93;;;10.20;99.90;;;;;;5068500;28;20212;-69
2022/11/08 15:41:32;;;;;;;75.43;38.30;;;10.20;99.90;;;;;;5065894;28;20286;-68
2022/11/08 15:44:22;;;;;;;75.97;41.33;;;10.20;99.90;;;;;;5054778;28;20564;-69
2022/11/08 15:46:49;;;;;;;100.93;53.50;;;10.10;99.90;;;;;;5054652;28;20212;-69
2022/11/08 15:49:19;;;;;;;74.63;44.37;;;10.10;99.90;;;;;;5054784;28;20299;-69
2022/11/08 15:51:47;;;;;;;76.30;42.77;;;10.10;99.90;;;;;;5054629;28;20201;-67
2022/11/08 15:54:14;;;;;;;76.63;44.90;;;10.10;99.90;;;;;;5053945;28;20231;-66
2022/11/08 15:56:41;;;;;;;79.53;44.87;;;10.10;99.90;;;;;;5054311;28;20670;-68
2022/11/08 15:59:12;;;;;;;85.40;46.50;;;10.10;99.90;;;;;;5054254;28;20318;-69
2022/11/08 16:01:48;;;;;;;79.50;47.30;;;10.10;99.90;;;;;;5054515;28;20213;-67
2022/11/08 16:04:14;;;;;;;77.63;45.90;;;10.10;99.90;;;;;;5053898;28;20252;-68
2022/11/08 16:06:41;;;;;;;80.07;44.77;;;10.10;99.90;;;;;;5054055;28;20208;-67
2022/11/08 16:09:08;;;;;;;83.70;48.67;;;10.10;99.90;;;;;;5053940;28;20219;-68
2022/11/08 16:11:37;;;;;;;78.37;46.40;;;10.10;99.90;;;;;;5054440;28;20201;-68
2022/11/08 16:14:04;;;;;;;80.70;47.87;;;10.10;99.90;;;;;;5054105;28;20201;-68
2022/11/08 16:16:31;;;;;;;90.10;51.27;;;10.10;99.90;;;;;;5053596;28;20205;-68
2022/11/08 16:18:59;;;;;;;83.13;49.33;;;10.10;99.90;;;;;;5053918;28;20589;-68
2022/11/08 16:21:26;;;;;;;89.67;51.13;;;10.10;99.90;;;;;;5053608;28;20225;-70
2022/11/08 16:23:53;;;;;;;90.33;52.23;;;10.10;99.90;;;;;;5053529;28;20206;-69
2022/11/08 16:26:19;;;;;;;83.57;47.03;;;10.10;99.90;;;;;;5053764;28;20205;-67
2022/11/08 16:28:47;;;;;;;82.47;47.30;;;10.10;99.90;;;;;;5054179;28;20662;-67
2022/11/08 16:31:16;;;;;;;87.13;47.37;;;10.00;99.90;;;;;;5053778;28;20204;-70
2022/11/08 16:33:45;;;;;;;75.67;45.03;;;10.00;99.90;;;;;;5053800;28;20202;-71
2022/11/08 16:36:18;;;;;;;80.80;46.47;;;10.00;99.90;;;;;;5053328;28;20208;-69
2022/11/08 16:38:49;;;;;;;84.00;46.60;;;10.00;99.90;;;;;;5053834;28;20196;-68
2022/11/08 16:41:16;;;;;;;85.70;46.40;;;9.90;99.90;;;;;;5052162;28;20237;-68
2022/11/08 16:43:43;;;;;;;80.83;46.37;;;9.90;99.90;;;;;;5066613;28;20228;-70
2022/11/08 16:46:10;;;;;;;82.70;44.63;;;9.90;99.90;;;;;;5073588;28;20205;-69
2022/11/08 16:48:39;;;;;;;86.87;47.73;;;9.80;99.90;;;;;;5074095;28;20196;-71
2022/11/08 16:51:12;;;;;;;76.43;45.03;;;9.80;99.90;;;;;;5073424;28;20192;-68
2022/11/08 16:53:40;;;;;;;77.53;44.07;;;9.70;99.90;;;;;;5073605;28;20196;-68
2022/11/08 16:56:07;;;;;;;78.10;43.43;;;9.70;99.90;;;;;;5059510;28;20212;-69
2022/11/08 16:58:34;;;;;;;80.77;44.27;;;9.70;99.90;;;;;;5073171;28;20204;-68
2022/11/08 17:01:02;;;;;;;82.33;45.93;;;9.70;99.90;;;;;;5065304;28;20229;-69
2022/11/08 17:03:29;;;;;;;83.30;43.50;;;9.60;99.90;;;;;;5093117;28;20214;-68
2022/11/08 17:05:56;;;;;;;78.73;43.77;;;9.60;99.90;;;;;;5087663;28;20192;-68
2022/11/08 17:08:24;;;;;;;81.73;44.40;;;9.50;99.90;;;;;;5061042;28;20305;-69
2022/11/08 17:10:53;;;;;;;79.60;44.23;;;9.50;99.90;;;;;;5071291;28;20200;-66
2022/11/08 17:13:21;;;;;;;74.90;40.90;;;9.50;99.90;;;;;;5071690;28;20205;-68
2022/11/08 17:15:49;;;;;;;73.07;41.57;;;9.40;99.90;;;;;;5079563;28;20200;-69
2022/11/08 17:18:18;;;;;;;75.20;41.60;;;9.40;99.90;;;;;;5092122;28;20200;-68
2022/11/08 17:20:44;;;;;;;68.90;40.80;;;9.40;99.90;;;;;;5072763;28;20303;-66
2022/11/08 17:23:12;;;;;;;66.63;40.23;;;9.30;99.90;;;;;;5072868;28;20208;-66
2022/11/08 17:25:41;;;;;;;77.03;44.20;;;9.30;99.90;;;;;;5072466;28;20219;-67
2022/11/08 17:28:10;;;;;;;64.47;39.47;;;9.20;99.90;;;;;;5060269;28;20259;-67
2022/11/08 17:30:42;;;;;;;76.60;46.00;;;9.20;99.90;;;;;;5056144;28;20205;-69
2022/11/08 17:33:10;;;;;;;75.77;43.47;;;9.20;99.90;;;;;;5092404;28;20287;-67
2022/11/08 17:35:37;;;;;;;66.30;39.80;;;9.10;99.90;;;;;;5092613;28;20208;-71
2022/11/08 17:38:04;;;;;;;67.23;39.53;;;9.10;99.90;;;;;;5092782;28;20684;-68
2022/11/08 17:40:31;;;;;;;64.77;39.20;;;9.10;99.90;;;;;;5070671;28;20603;-69
2022/11/08 17:42:58;;;;;;;60.87;37.83;;;9.00;99.90;;;;;;5052301;28;20229;-68
2022/11/08 17:45:26;;;;;;;56.17;35.07;;;9.00;99.90;;;;;;5053489;28;21517;-67
2022/11/08 17:47:53;;;;;;;56.70;36.10;;;9.00;99.90;;;;;;5050494;28;20223;-67
2022/11/08 17:50:19;;;;;;;52.10;33.63;;;8.90;99.90;;;;;;5075758;28;20589;-68
2022/11/08 17:52:46;;;;;;;79.20;45.60;;;8.80;99.90;;;;;;5092340;28;20200;-68
2022/11/08 17:55:13;;;;;;;63.63;40.10;;;8.80;99.90;;;;;;5072467;28;20228;-68
2022/11/08 17:57:40;;;;;;;58.90;37.83;;;8.70;99.90;;;;;;5072147;28;20211;-71
2022/11/08 18:00:08;;;;;;;63.03;38.80;;;8.60;99.90;;;;;;5071947;28;20662;-71
2022/11/08 18:02:36;;;;;;;60.00;37.47;;;8.60;99.90;;;;;;5055013;28;20567;-67
2022/11/08 18:05:03;;;;;;;61.00;37.87;;;8.50;99.90;;;;;;5051675;28;20205;-70
2022/11/08 18:07:30;;;;;;;56.37;36.37;;;8.50;99.90;;;;;;5091579;28;20208;-68
2022/11/08 18:09:57;;;;;;;58.30;38.73;;;8.50;99.90;;;;;;5091874;28;20206;-71
2022/11/08 18:12:24;;;;;;;56.97;36.20;;;8.50;99.90;;;;;;5092178;28;20228;-69
2022/11/08 18:14:51;;;;;;;54.60;34.30;;;8.40;99.90;;;;;;5092251;28;20214;-71
2022/11/08 18:17:21;;;;;;;50.20;34.17;;;8.40;99.90;;;;;;5089729;28;20563;-69
2022/11/08 18:19:49;;;;;;;52.53;33.83;;;8.40;99.90;;;;;;5059780;28;20205;-70
2022/11/08 18:22:16;;;;;;;54.60;33.80;;;8.30;99.90;;;;;;5071614;28;20216;-71
2022/11/08 18:24:43;;;;;;;46.70;30.70;;;8.30;99.90;;;;;;5074321;28;20291;-68
2022/11/08 18:27:10;;;;;;;48.40;34.20;;;8.20;99.90;;;;;;5081839;28;20228;-68
2022/11/08 18:29:37;;;;;;;44.73;30.67;;;8.20;99.90;;;;;;5071904;28;20212;-71
2022/11/08 18:32:04;;;;;;;40.73;27.67;;;8.20;99.90;;;;;;5071622;28;20302;-70
2022/11/08 18:34:31;;;;;;;37.10;24.83;;;8.10;99.90;;;;;;5071999;28;20200;-67
2022/11/08 18:36:59;;;;;;;37.37;24.87;;;8.10;99.90;;;;;;5062590;28;20204;-68
2022/11/08 18:39:26;;;;;;;34.27;22.43;;;8.10;99.90;;;;;;5067514;28;20204;-69
2022/11/08 18:41:53;;;;;;;34.07;22.60;;;8.00;99.90;;;;;;5088655;28;20262;-71
2022/11/08 18:44:20;;;;;;;36.33;24.77;;;8.00;99.90;;;;;;5063405;28;20638;-68
2022/11/08 18:46:46;;;;;;;47.23;32.23;;;8.00;99.90;;;;;;5061366;28;20212;-68
2022/11/08 18:49:13;;;;;;;47.37;33.07;;;8.00;99.90;;;;;;5051741;28;20212;-70
2022/11/08 18:51:40;;;;;;;49.03;33.63;;;7.90;99.90;;;;;;5046227;28;20236;-71
2022/11/08 18:54:08;;;;;;;45.33;31.83;;;7.90;99.90;;;;;;5056396;28;20210;-69
2022/11/08 18:56:35;;;;;;;49.57;35.73;;;7.80;99.90;;;;;;5056926;28;20200;-69
2022/11/08 18:59:02;;;;;;;42.70;29.63;;;7.70;99.90;;;;;;5066560;28;20200;-68
2022/11/08 19:01:29;;;;;;;38.00;25.90;;;7.70;99.90;;;;;;5071588;28;20614;-70
2022/11/08 19:03:55;;;;;;;32.93;22.93;;;7.70;99.90;;;;;;5071283;28;20223;-71
2022/11/08 19:06:22;;;;;;;32.73;21.63;;;7.70;99.90;;;;;;5068800;28;20208;-69
2022/11/08 19:08:49;;;;;;;38.07;25.70;;;7.70;99.90;;;;;;5054764;28;20208;-69
2022/11/08 19:11:21;;;;;;;41.83;31.23;;;7.70;99.90;;;;;;5059031;28;20725;-69
2022/11/08 19:13:48;;;;;;;43.13;28.90;;;7.70;99.90;;;;;;5066565;28;20241;-69
2022/11/08 19:16:18;;;;;;;44.73;32.40;;;7.60;99.90;;;;;;5085156;28;20213;-68
2022/11/08 19:18:45;;;;;;;57.20;39.03;;;7.60;99.90;;;;;;5053617;28;20225;-68
2022/11/08 19:21:15;;;;;;;51.50;37.17;;;7.50;99.90;;;;;;5055141;28;20215;-69
2022/11/08 19:23:42;;;;;;;50.03;35.10;;;7.50;99.90;;;;;;5074474;28;20227;-67
2022/11/08 19:26:13;;;;;;;44.87;31.80;;;7.50;99.90;;;;;;5052247;28;20205;-69
2022/11/08 19:28:43;;;;;;;52.37;34.83;;;7.40;99.90;;;;;;5064725;28;20194;-70